sensor_id;sensor_type;location;lat;lon;timestamp;P1;durP1;ratioP1;P2;durP2;ratioP2
68256;SDS011;55069;51.568;4.656;2022-11-23T00:01:21;24.30;;;6.50;;
68256;SDS011;55069;51.568;4.656;2022-11-23T00:03:50;14.88;;;5.97;;
68256;SDS011;55069;51.568;4.656;2022-11-23T00:06:17;19.75;;;6.28;;
68256;SDS011;55069;51.568;4.656;2022-11-23T00:08:44;15.98;;;6.00;;
68256;SDS011;55069;51.568;4.656;2022-11-23T00:11:10;18.63;;;6.33;;
68256;SDS011;55069;51.568;4.656;2022-11-23T00:13:35;16.00;;;6.75;;
68256;SDS011;55069;51.568;4.656;2022-11-23T00:16:04;19.85;;;6.53;;
68256;SDS011;55069;51.568;4.656;2022-11-23T00:18:31;18.48;;;6.95;;
68256;SDS011;55069;51.568;4.656;2022-11-23T00:20:57;16.93;;;6.53;;
68256;SDS011;55069;51.568;4.656;2022-11-23T00:23:22;20.10;;;6.83;;
68256;SDS011;55069;51.568;4.656;2022-11-23T00:25:48;17.00;;;6.50;;
68256;SDS011;55069;51.568;4.656;2022-11-23T00:28:13;24.08;;;6.88;;
68256;SDS011;55069;51.568;4.656;2022-11-23T00:30:38;23.77;;;6.33;;
68256;SDS011;55069;51.568;4.656;2022-11-23T00:33:04;19.17;;;6.27;;
68256;SDS011;55069;51.568;4.656;2022-11-23T00:35:30;22.70;;;6.77;;
68256;SDS011;55069;51.568;4.656;2022-11-23T00:37:55;18.90;;;7.13;;
68256;SDS011;55069;51.568;4.656;2022-11-23T00:40:21;13.37;;;5.80;;
68256;SDS011;55069;51.568;4.656;2022-11-23T00:42:46;13.50;;;6.10;;
68256;SDS011;55069;51.568;4.656;2022-11-23T00:45:12;21.88;;;6.82;;
68256;SDS011;55069;51.568;4.656;2022-11-23T00:47:37;20.83;;;6.70;;
68256;SDS011;55069;51.568;4.656;2022-11-23T00:50:03;15.43;;;5.70;;
68256;SDS011;55069;51.568;4.656;2022-11-23T00:52:29;17.00;;;6.13;;
68256;SDS011;55069;51.568;4.656;2022-11-23T00:54:54;17.80;;;6.37;;
68256;SDS011;55069;51.568;4.656;2022-11-23T00:57:20;15.60;;;6.40;;
68256;SDS011;55069;51.568;4.656;2022-11-23T00:59:45;16.90;;;6.30;;
68256;SDS011;55069;51.568;4.656;2022-11-23T01:02:11;14.47;;;6.10;;
68256;SDS011;55069;51.568;4.656;2022-11-23T01:04:39;19.43;;;5.80;;
68256;SDS011;55069;51.568;4.656;2022-11-23T01:07:05;12.55;;;5.63;;
68256;SDS011;55069;51.568;4.656;2022-11-23T01:09:31;16.95;;;5.60;;
68256;SDS011;55069;51.568;4.656;2022-11-23T01:11:56;15.68;;;5.47;;
68256;SDS011;55069;51.568;4.656;2022-11-23T01:14:22;19.13;;;5.63;;
68256;SDS011;55069;51.568;4.656;2022-11-23T01:16:48;19.85;;;5.82;;
68256;SDS011;55069;51.568;4.656;2022-11-23T01:19:15;15.88;;;5.57;;
68256;SDS011;55069;51.568;4.656;2022-11-23T01:21:45;21.27;;;6.32;;
68256;SDS011;55069;51.568;4.656;2022-11-23T01:24:12;21.17;;;7.18;;
68256;SDS011;55069;51.568;4.656;2022-11-23T01:26:40;16.10;;;7.53;;
68256;SDS011;55069;51.568;4.656;2022-11-23T01:29:06;20.83;;;7.35;;
68256;SDS011;55069;51.568;4.656;2022-11-23T01:31:32;17.80;;;8.25;;
68256;SDS011;55069;51.568;4.656;2022-11-23T01:33:58;21.03;;;8.07;;
68256;SDS011;55069;51.568;4.656;2022-11-23T01:36:25;19.27;;;8.40;;
68256;SDS011;55069;51.568;4.656;2022-11-23T01:38:52;17.48;;;8.55;;
68256;SDS011;55069;51.568;4.656;2022-11-23T01:41:21;17.60;;;9.20;;
68256;SDS011;55069;51.568;4.656;2022-11-23T01:43:49;21.48;;;9.23;;
68256;SDS011;55069;51.568;4.656;2022-11-23T01:46:15;16.80;;;8.65;;
68256;SDS011;55069;51.568;4.656;2022-11-23T01:48:46;15.80;;;8.60;;
68256;SDS011;55069;51.568;4.656;2022-11-23T01:51:17;16.10;;;8.95;;
68256;SDS011;55069;51.568;4.656;2022-11-23T01:53:47;15.77;;;8.80;;
68256;SDS011;55069;51.568;4.656;2022-11-23T01:56:16;16.30;;;8.57;;
68256;SDS011;55069;51.568;4.656;2022-11-23T01:58:46;22.90;;;9.75;;
68256;SDS011;55069;51.568;4.656;2022-11-23T02:01:15;19.90;;;8.63;;
68256;SDS011;55069;51.568;4.656;2022-11-23T02:03:41;17.73;;;8.60;;
68256;SDS011;55069;51.568;4.656;2022-11-23T02:06:10;25.30;;;8.95;;
68256;SDS011;55069;51.568;4.656;2022-11-23T02:08:40;21.58;;;8.40;;
68256;SDS011;55069;51.568;4.656;2022-11-23T02:11:06;18.13;;;8.57;;
68256;SDS011;55069;51.568;4.656;2022-11-23T02:13:31;13.60;;;8.53;;
68256;SDS011;55069;51.568;4.656;2022-11-23T02:15:57;13.30;;;7.53;;
68256;SDS011;55069;51.568;4.656;2022-11-23T02:18:28;17.40;;;7.80;;
68256;SDS011;55069;51.568;4.656;2022-11-23T02:20:55;13.85;;;7.60;;
68256;SDS011;55069;51.568;4.656;2022-11-23T02:23:29;16.77;;;7.97;;
68256;SDS011;55069;51.568;4.656;2022-11-23T02:26:04;16.90;;;7.00;;
68256;SDS011;55069;51.568;4.656;2022-11-23T02:28:38;14.68;;;7.15;;
68256;SDS011;55069;51.568;4.656;2022-11-23T02:31:07;14.52;;;7.30;;
68256;SDS011;55069;51.568;4.656;2022-11-23T02:33:36;16.47;;;7.40;;
68256;SDS011;55069;51.568;4.656;2022-11-23T02:39:14;14.98;;;6.97;;
68256;SDS011;55069;51.568;4.656;2022-11-23T02:41:46;17.92;;;6.55;;
68256;SDS011;55069;51.568;4.656;2022-11-23T02:44:17;9.95;;;5.05;;
68256;SDS011;55069;51.568;4.656;2022-11-23T02:46:46;12.03;;;4.93;;
68256;SDS011;55069;51.568;4.656;2022-11-23T02:49:13;12.93;;;5.13;;
68256;SDS011;55069;51.568;4.656;2022-11-23T02:51:38;11.27;;;5.22;;
68256;SDS011;55069;51.568;4.656;2022-11-23T02:54:04;14.73;;;5.17;;
68256;SDS011;55069;51.568;4.656;2022-11-23T02:56:30;13.50;;;5.00;;
68256;SDS011;55069;51.568;4.656;2022-11-23T02:58:55;15.13;;;5.03;;
68256;SDS011;55069;51.568;4.656;2022-11-23T03:01:21;12.87;;;4.60;;
68256;SDS011;55069;51.568;4.656;2022-11-23T03:03:47;8.70;;;3.80;;
68256;SDS011;55069;51.568;4.656;2022-11-23T03:06:12;13.20;;;4.30;;
68256;SDS011;55069;51.568;4.656;2022-11-23T03:08:38;11.20;;;4.30;;
68256;SDS011;55069;51.568;4.656;2022-11-23T03:11:03;12.43;;;4.47;;
68256;SDS011;55069;51.568;4.656;2022-11-23T03:13:30;12.20;;;3.67;;
68256;SDS011;55069;51.568;4.656;2022-11-23T03:15:57;16.10;;;3.95;;
68256;SDS011;55069;51.568;4.656;2022-11-23T03:18:25;11.65;;;3.97;;
68256;SDS011;55069;51.568;4.656;2022-11-23T03:20:51;16.73;;;4.13;;
68256;SDS011;55069;51.568;4.656;2022-11-23T03:23:16;10.80;;;3.87;;
68256;SDS011;55069;51.568;4.656;2022-11-23T03:25:43;12.93;;;3.70;;
68256;SDS011;55069;51.568;4.656;2022-11-23T03:28:09;8.97;;;3.43;;
68256;SDS011;55069;51.568;4.656;2022-11-23T03:30:35;10.90;;;3.53;;
68256;SDS011;55069;51.568;4.656;2022-11-23T03:33:03;12.20;;;3.78;;
68256;SDS011;55069;51.568;4.656;2022-11-23T03:35:28;17.27;;;4.15;;
68256;SDS011;55069;51.568;4.656;2022-11-23T03:38:14;11.93;;;3.93;;
68256;SDS011;55069;51.568;4.656;2022-11-23T03:40:42;13.27;;;3.63;;
68256;SDS011;55069;51.568;4.656;2022-11-23T03:43:18;10.38;;;3.35;;
68256;SDS011;55069;51.568;4.656;2022-11-23T03:45:43;14.60;;;3.47;;
68256;SDS011;55069;51.568;4.656;2022-11-23T03:48:09;15.50;;;3.78;;
68256;SDS011;55069;51.568;4.656;2022-11-23T03:50:35;11.50;;;3.27;;
68256;SDS011;55069;51.568;4.656;2022-11-23T03:53:01;10.77;;;3.42;;
68256;SDS011;55069;51.568;4.656;2022-11-23T03:55:27;13.93;;;3.88;;
68256;SDS011;55069;51.568;4.656;2022-11-23T03:57:52;12.33;;;4.17;;
68256;SDS011;55069;51.568;4.656;2022-11-23T04:00:20;15.52;;;4.20;;
68256;SDS011;55069;51.568;4.656;2022-11-23T04:02:46;15.50;;;4.80;;
68256;SDS011;55069;51.568;4.656;2022-11-23T04:05:31;15.98;;;5.55;;
68256;SDS011;55069;51.568;4.656;2022-11-23T04:08:29;15.57;;;4.70;;
68256;SDS011;55069;51.568;4.656;2022-11-23T04:10:56;14.25;;;4.90;;
68256;SDS011;55069;51.568;4.656;2022-11-23T04:13:31;11.70;;;5.07;;
68256;SDS011;55069;51.568;4.656;2022-11-23T04:15:57;14.70;;;4.77;;
68256;SDS011;55069;51.568;4.656;2022-11-23T04:18:22;16.73;;;4.87;;
68256;SDS011;55069;51.568;4.656;2022-11-23T04:20:48;11.13;;;3.97;;
68256;SDS011;55069;51.568;4.656;2022-11-23T04:23:14;10.13;;;4.07;;
68256;SDS011;55069;51.568;4.656;2022-11-23T04:25:41;13.37;;;4.70;;
68256;SDS011;55069;51.568;4.656;2022-11-23T04:28:07;15.45;;;4.28;;
68256;SDS011;55069;51.568;4.656;2022-11-23T04:30:33;9.88;;;3.83;;
68256;SDS011;55069;51.568;4.656;2022-11-23T04:32:59;11.85;;;3.53;;
68256;SDS011;55069;51.568;4.656;2022-11-23T04:35:25;13.45;;;3.95;;
68256;SDS011;55069;51.568;4.656;2022-11-23T04:37:51;12.98;;;3.55;;
68256;SDS011;55069;51.568;4.656;2022-11-23T04:40:20;19.63;;;3.33;;
68256;SDS011;55069;51.568;4.656;2022-11-23T04:42:57;16.38;;;3.53;;
68256;SDS011;55069;51.568;4.656;2022-11-23T04:45:23;14.87;;;3.33;;
68256;SDS011;55069;51.568;4.656;2022-11-23T04:47:50;11.48;;;2.78;;
68256;SDS011;55069;51.568;4.656;2022-11-23T04:50:16;17.38;;;3.05;;
68256;SDS011;55069;51.568;4.656;2022-11-23T04:52:45;18.10;;;2.80;;
68256;SDS011;55069;51.568;4.656;2022-11-23T04:55:16;13.05;;;2.15;;
68256;SDS011;55069;51.568;4.656;2022-11-23T04:57:50;13.07;;;2.22;;
68256;SDS011;55069;51.568;4.656;2022-11-23T05:00:15;12.70;;;2.33;;
68256;SDS011;55069;51.568;4.656;2022-11-23T05:02:42;17.40;;;2.42;;
68256;SDS011;55069;51.568;4.656;2022-11-23T05:05:14;14.82;;;2.30;;
68256;SDS011;55069;51.568;4.656;2022-11-23T05:07:40;15.18;;;1.77;;
68256;SDS011;55069;51.568;4.656;2022-11-23T05:10:05;9.63;;;1.83;;
68256;SDS011;55069;51.568;4.656;2022-11-23T05:12:33;13.93;;;1.80;;
68256;SDS011;55069;51.568;4.656;2022-11-23T05:15:00;11.90;;;2.45;;
68256;SDS011;55069;51.568;4.656;2022-11-23T05:17:32;13.23;;;1.53;;
68256;SDS011;55069;51.568;4.656;2022-11-23T05:19:58;13.07;;;1.70;;
68256;SDS011;55069;51.568;4.656;2022-11-23T05:22:25;9.35;;;1.67;;
68256;SDS011;55069;51.568;4.656;2022-11-23T05:24:51;13.52;;;1.95;;
68256;SDS011;55069;51.568;4.656;2022-11-23T05:27:19;17.52;;;1.83;;
68256;SDS011;55069;51.568;4.656;2022-11-23T05:29:45;14.17;;;1.60;;
68256;SDS011;55069;51.568;4.656;2022-11-23T05:32:11;11.93;;;1.53;;
68256;SDS011;55069;51.568;4.656;2022-11-23T05:34:37;9.07;;;1.88;;
68256;SDS011;55069;51.568;4.656;2022-11-23T05:37:03;14.25;;;2.10;;
68256;SDS011;55069;51.568;4.656;2022-11-23T05:39:29;15.27;;;1.83;;
68256;SDS011;55069;51.568;4.656;2022-11-23T05:41:56;10.35;;;1.65;;
68256;SDS011;55069;51.568;4.656;2022-11-23T05:44:40;17.20;;;1.42;;
68256;SDS011;55069;51.568;4.656;2022-11-23T05:47:18;13.25;;;1.88;;
68256;SDS011;55069;51.568;4.656;2022-11-23T05:49:45;22.73;;;2.10;;
68256;SDS011;55069;51.568;4.656;2022-11-23T05:52:11;15.13;;;2.40;;
68256;SDS011;55069;51.568;4.656;2022-11-23T05:54:38;20.80;;;2.50;;
68256;SDS011;55069;51.568;4.656;2022-11-23T05:57:10;19.45;;;2.22;;
68256;SDS011;55069;51.568;4.656;2022-11-23T05:59:38;19.25;;;2.40;;
68256;SDS011;55069;51.568;4.656;2022-11-23T06:02:05;16.35;;;1.67;;
68256;SDS011;55069;51.568;4.656;2022-11-23T06:04:33;16.07;;;1.93;;
68256;SDS011;55069;51.568;4.656;2022-11-23T06:06:59;17.15;;;2.22;;
68256;SDS011;55069;51.568;4.656;2022-11-23T06:09:28;13.67;;;1.97;;
68256;SDS011;55069;51.568;4.656;2022-11-23T06:11:58;16.38;;;2.22;;
68256;SDS011;55069;51.568;4.656;2022-11-23T06:14:24;14.65;;;2.15;;
68256;SDS011;55069;51.568;4.656;2022-11-23T06:16:50;14.57;;;1.73;;
68256;SDS011;55069;51.568;4.656;2022-11-23T06:19:29;19.08;;;1.90;;
68256;SDS011;55069;51.568;4.656;2022-11-23T06:21:55;15.57;;;2.42;;
68256;SDS011;55069;51.568;4.656;2022-11-23T06:24:22;15.10;;;1.80;;
68256;SDS011;55069;51.568;4.656;2022-11-23T06:27:03;18.95;;;1.77;;
68256;SDS011;55069;51.568;4.656;2022-11-23T06:29:29;12.77;;;2.35;;
68256;SDS011;55069;51.568;4.656;2022-11-23T06:31:55;14.67;;;2.00;;
68256;SDS011;55069;51.568;4.656;2022-11-23T06:34:21;17.15;;;2.50;;
68256;SDS011;55069;51.568;4.656;2022-11-23T06:36:46;16.50;;;2.20;;
68256;SDS011;55069;51.568;4.656;2022-11-23T06:39:12;15.47;;;1.93;;
68256;SDS011;55069;51.568;4.656;2022-11-23T06:41:37;27.37;;;2.37;;
68256;SDS011;55069;51.568;4.656;2022-11-23T06:44:04;15.15;;;2.13;;
68256;SDS011;55069;51.568;4.656;2022-11-23T06:46:39;18.10;;;1.85;;
68256;SDS011;55069;51.568;4.656;2022-11-23T06:49:05;15.73;;;2.28;;
68256;SDS011;55069;51.568;4.656;2022-11-23T06:51:31;18.63;;;2.23;;
68256;SDS011;55069;51.568;4.656;2022-11-23T06:53:56;21.35;;;2.50;;
68256;SDS011;55069;51.568;4.656;2022-11-23T06:56:23;15.07;;;2.13;;
68256;SDS011;55069;51.568;4.656;2022-11-23T06:58:48;21.95;;;2.13;;
68256;SDS011;55069;51.568;4.656;2022-11-23T07:01:19;10.27;;;2.03;;
68256;SDS011;55069;51.568;4.656;2022-11-23T07:03:59;17.67;;;2.00;;
68256;SDS011;55069;51.568;4.656;2022-11-23T07:06:29;19.63;;;2.42;;
68256;SDS011;55069;51.568;4.656;2022-11-23T07:08:58;16.63;;;2.28;;
68256;SDS011;55069;51.568;4.656;2022-11-23T07:11:43;18.17;;;2.50;;
68256;SDS011;55069;51.568;4.656;2022-11-23T07:14:09;17.25;;;1.88;;
68256;SDS011;55069;51.568;4.656;2022-11-23T07:16:37;13.10;;;2.13;;
68256;SDS011;55069;51.568;4.656;2022-11-23T07:19:03;15.07;;;2.42;;
68256;SDS011;55069;51.568;4.656;2022-11-23T07:21:29;14.60;;;2.40;;
68256;SDS011;55069;51.568;4.656;2022-11-23T07:23:55;18.83;;;2.28;;
68256;SDS011;55069;51.568;4.656;2022-11-23T07:26:20;17.27;;;2.40;;
68256;SDS011;55069;51.568;4.656;2022-11-23T07:28:46;19.33;;;2.20;;
68256;SDS011;55069;51.568;4.656;2022-11-23T07:31:11;23.58;;;3.47;;
68256;SDS011;55069;51.568;4.656;2022-11-23T07:33:42;17.52;;;3.88;;
68256;SDS011;55069;51.568;4.656;2022-11-23T07:36:11;15.73;;;2.13;;
68256;SDS011;55069;51.568;4.656;2022-11-23T07:38:39;13.43;;;2.92;;
68256;SDS011;55069;51.568;4.656;2022-11-23T07:41:05;15.90;;;2.45;;
68256;SDS011;55069;51.568;4.656;2022-11-23T07:43:49;14.32;;;3.10;;
68256;SDS011;55069;51.568;4.656;2022-11-23T07:46:15;12.73;;;2.40;;
68256;SDS011;55069;51.568;4.656;2022-11-23T07:48:40;15.13;;;2.10;;
68256;SDS011;55069;51.568;4.656;2022-11-23T07:51:06;15.20;;;2.70;;
68256;SDS011;55069;51.568;4.656;2022-11-23T07:53:31;19.38;;;2.58;;
68256;SDS011;55069;51.568;4.656;2022-11-23T07:55:57;14.00;;;2.10;;
68256;SDS011;55069;51.568;4.656;2022-11-23T07:58:22;19.93;;;2.60;;
68256;SDS011;55069;51.568;4.656;2022-11-23T08:00:49;25.48;;;2.33;;
68256;SDS011;55069;51.568;4.656;2022-11-23T08:03:14;14.90;;;2.25;;
68256;SDS011;55069;51.568;4.656;2022-11-23T08:05:40;19.55;;;2.13;;
68256;SDS011;55069;51.568;4.656;2022-11-23T08:08:05;14.97;;;2.47;;
68256;SDS011;55069;51.568;4.656;2022-11-23T08:10:31;17.57;;;2.73;;
68256;SDS011;55069;51.568;4.656;2022-11-23T08:13:00;15.05;;;2.40;;
68256;SDS011;55069;51.568;4.656;2022-11-23T08:15:28;17.80;;;2.57;;
68256;SDS011;55069;51.568;4.656;2022-11-23T08:17:57;21.02;;;2.60;;
68256;SDS011;55069;51.568;4.656;2022-11-23T08:20:24;21.67;;;2.87;;
68256;SDS011;55069;51.568;4.656;2022-11-23T08:22:50;16.73;;;1.98;;
68256;SDS011;55069;51.568;4.656;2022-11-23T08:25:16;14.55;;;2.03;;
68256;SDS011;55069;51.568;4.656;2022-11-23T08:27:42;16.67;;;2.08;;
68256;SDS011;55069;51.568;4.656;2022-11-23T08:30:08;14.13;;;2.17;;
68256;SDS011;55069;51.568;4.656;2022-11-23T08:32:34;19.50;;;2.22;;
68256;SDS011;55069;51.568;4.656;2022-11-23T08:35:00;16.10;;;2.30;;
68256;SDS011;55069;51.568;4.656;2022-11-23T08:37:25;17.90;;;2.20;;
68256;SDS011;55069;51.568;4.656;2022-11-23T08:39:51;15.18;;;2.70;;
68256;SDS011;55069;51.568;4.656;2022-11-23T08:42:16;18.50;;;2.20;;
68256;SDS011;55069;51.568;4.656;2022-11-23T08:44:42;20.90;;;2.60;;
68256;SDS011;55069;51.568;4.656;2022-11-23T08:47:07;12.77;;;1.93;;
68256;SDS011;55069;51.568;4.656;2022-11-23T08:49:33;17.17;;;1.97;;
68256;SDS011;55069;51.568;4.656;2022-11-23T08:51:58;19.13;;;2.33;;
68256;SDS011;55069;51.568;4.656;2022-11-23T08:54:24;16.23;;;2.10;;
68256;SDS011;55069;51.568;4.656;2022-11-23T08:56:50;13.38;;;1.88;;
68256;SDS011;55069;51.568;4.656;2022-11-23T08:59:16;12.37;;;1.80;;
68256;SDS011;55069;51.568;4.656;2022-11-23T09:01:42;13.43;;;2.10;;
68256;SDS011;55069;51.568;4.656;2022-11-23T09:04:08;19.73;;;2.45;;
68256;SDS011;55069;51.568;4.656;2022-11-23T09:06:33;15.57;;;1.80;;
68256;SDS011;55069;51.568;4.656;2022-11-23T09:08:59;16.42;;;2.63;;
68256;SDS011;55069;51.568;4.656;2022-11-23T09:11:25;19.58;;;2.75;;
68256;SDS011;55069;51.568;4.656;2022-11-23T09:13:51;15.88;;;2.45;;
68256;SDS011;55069;51.568;4.656;2022-11-23T09:16:17;13.15;;;2.60;;
68256;SDS011;55069;51.568;4.656;2022-11-23T09:18:43;12.37;;;2.60;;
68256;SDS011;55069;51.568;4.656;2022-11-23T09:21:08;15.35;;;2.70;;
68256;SDS011;55069;51.568;4.656;2022-11-23T09:23:34;14.00;;;2.10;;
68256;SDS011;55069;51.568;4.656;2022-11-23T09:26:03;16.37;;;2.47;;
68256;SDS011;55069;51.568;4.656;2022-11-23T09:28:29;15.10;;;2.28;;
68256;SDS011;55069;51.568;4.656;2022-11-23T09:30:56;10.65;;;1.80;;
68256;SDS011;55069;51.568;4.656;2022-11-23T09:33:22;17.30;;;2.53;;
68256;SDS011;55069;51.568;4.656;2022-11-23T09:35:56;12.35;;;2.67;;
68256;SDS011;55069;51.568;4.656;2022-11-23T09:38:26;13.50;;;2.75;;
68256;SDS011;55069;51.568;4.656;2022-11-23T09:40:55;14.15;;;2.00;;
68256;SDS011;55069;51.568;4.656;2022-11-23T09:46:00;17.27;;;2.73;;
68256;SDS011;55069;51.568;4.656;2022-11-23T09:51:22;8.00;;;1.80;;
68256;SDS011;55069;51.568;4.656;2022-11-23T09:53:52;7.83;;;1.80;;
68256;SDS011;55069;51.568;4.656;2022-11-23T09:56:34;16.95;;;2.88;;
68256;SDS011;55069;51.568;4.656;2022-11-23T09:59:16;14.27;;;2.28;;
68256;SDS011;55069;51.568;4.656;2022-11-23T10:01:44;13.13;;;2.38;;
68256;SDS011;55069;51.568;4.656;2022-11-23T10:04:16;12.17;;;2.93;;
68256;SDS011;55069;51.568;4.656;2022-11-23T10:06:44;10.20;;;2.65;;
68256;SDS011;55069;51.568;4.656;2022-11-23T10:09:28;14.15;;;1.75;;
68256;SDS011;55069;51.568;4.656;2022-11-23T10:26:09;13.70;;;2.22;;
68256;SDS011;55069;51.568;4.656;2022-11-23T10:28:38;9.68;;;1.80;;
68256;SDS011;55069;51.568;4.656;2022-11-23T10:31:17;9.67;;;2.57;;
68256;SDS011;55069;51.568;4.656;2022-11-23T10:36:48;13.97;;;2.57;;
68256;SDS011;55069;51.568;4.656;2022-11-23T10:39:21;11.30;;;2.60;;
68256;SDS011;55069;51.568;4.656;2022-11-23T10:41:49;12.18;;;2.08;;
68256;SDS011;55069;51.568;4.656;2022-11-23T10:44:24;9.30;;;2.05;;
68256;SDS011;55069;51.568;4.656;2022-11-23T10:46:56;10.73;;;1.83;;
68256;SDS011;55069;51.568;4.656;2022-11-23T10:49:23;11.60;;;2.05;;
68256;SDS011;55069;51.568;4.656;2022-11-23T10:51:53;12.95;;;2.30;;
68256;SDS011;55069;51.568;4.656;2022-11-23T10:54:53;12.73;;;1.80;;
68256;SDS011;55069;51.568;4.656;2022-11-23T11:00:01;7.67;;;1.97;;
68256;SDS011;55069;51.568;4.656;2022-11-23T11:02:38;11.32;;;2.00;;
68256;SDS011;55069;51.568;4.656;2022-11-23T11:07:56;10.95;;;1.75;;
68256;SDS011;55069;51.568;4.656;2022-11-23T11:10:37;12.73;;;2.60;;
68256;SDS011;55069;51.568;4.656;2022-11-23T11:18:49;11.63;;;1.52;;
68256;SDS011;55069;51.568;4.656;2022-11-23T11:21:19;8.68;;;1.10;;
68256;SDS011;55069;51.568;4.656;2022-11-23T11:23:57;7.47;;;1.20;;
68256;SDS011;55069;51.568;4.656;2022-11-23T11:26:24;4.50;;;1.30;;
68256;SDS011;55069;51.568;4.656;2022-11-23T11:28:54;8.88;;;1.90;;
68256;SDS011;55069;51.568;4.656;2022-11-23T11:36:45;8.53;;;1.40;;
68256;SDS011;55069;51.568;4.656;2022-11-23T11:39:19;9.93;;;1.60;;
68256;SDS011;55069;51.568;4.656;2022-11-23T11:41:54;7.43;;;1.70;;
68256;SDS011;55069;51.568;4.656;2022-11-23T11:44:24;8.90;;;1.75;;
68256;SDS011;55069;51.568;4.656;2022-11-23T11:46:59;10.07;;;1.63;;
68256;SDS011;55069;51.568;4.656;2022-11-23T11:49:40;8.13;;;1.60;;
68256;SDS011;55069;51.568;4.656;2022-11-23T11:52:12;6.97;;;1.40;;
68256;SDS011;55069;51.568;4.656;2022-11-23T11:54:50;9.45;;;2.30;;
68256;SDS011;55069;51.568;4.656;2022-11-23T11:57:48;5.25;;;1.20;;
68256;SDS011;55069;51.568;4.656;2022-11-23T12:00:19;9.15;;;1.60;;
68256;SDS011;55069;51.568;4.656;2022-11-23T12:05:27;8.38;;;1.27;;
68256;SDS011;55069;51.568;4.656;2022-11-23T12:10:43;3.97;;;1.30;;
68256;SDS011;55069;51.568;4.656;2022-11-23T12:18:59;7.38;;;1.10;;
68256;SDS011;55069;51.568;4.656;2022-11-23T12:24:14;13.27;;;1.48;;
68256;SDS011;55069;51.568;4.656;2022-11-23T12:42:55;12.60;;;1.30;;
68256;SDS011;55069;51.568;4.656;2022-11-23T12:45:32;8.80;;;1.38;;
68256;SDS011;55069;51.568;4.656;2022-11-23T12:50:44;9.13;;;1.08;;
68256;SDS011;55069;51.568;4.656;2022-11-23T12:59:11;5.05;;;1.40;;
68256;SDS011;55069;51.568;4.656;2022-11-23T13:01:38;6.13;;;0.80;;
68256;SDS011;55069;51.568;4.656;2022-11-23T13:10:10;6.63;;;1.10;;
68256;SDS011;55069;51.568;4.656;2022-11-23T13:15:51;7.43;;;1.30;;
68256;SDS011;55069;51.568;4.656;2022-11-23T13:21:41;8.45;;;2.08;;
68256;SDS011;55069;51.568;4.656;2022-11-23T13:40:25;7.22;;;1.38;;
68256;SDS011;55069;51.568;4.656;2022-11-23T13:43:37;5.30;;;1.47;;
68256;SDS011;55069;51.568;4.656;2022-11-23T13:45:46;8.02;;;1.40;;
68256;SDS011;55069;51.568;4.656;2022-11-23T13:48:42;8.55;;;1.92;;
68256;SDS011;55069;51.568;4.656;2022-11-23T13:51:09;11.93;;;2.20;;
68256;SDS011;55069;51.568;4.656;2022-11-23T13:53:38;8.67;;;1.83;;
68256;SDS011;55069;51.568;4.656;2022-11-23T14:04:27;9.83;;;1.93;;
68256;SDS011;55069;51.568;4.656;2022-11-23T14:07:23;7.60;;;1.48;;
68256;SDS011;55069;51.568;4.656;2022-11-23T14:09:56;7.60;;;1.30;;
68256;SDS011;55069;51.568;4.656;2022-11-23T14:12:31;6.22;;;1.30;;
68256;SDS011;55069;51.568;4.656;2022-11-23T14:17:57;9.27;;;1.37;;
68256;SDS011;55069;51.568;4.656;2022-11-23T14:31:48;5.87;;;1.53;;
68256;SDS011;55069;51.568;4.656;2022-11-23T14:34:31;5.75;;;1.58;;
68256;SDS011;55069;51.568;4.656;2022-11-23T14:39:58;6.28;;;1.33;;
68256;SDS011;55069;51.568;4.656;2022-11-23T14:42:44;6.32;;;1.63;;
68256;SDS011;55069;51.568;4.656;2022-11-23T14:45:16;7.47;;;1.57;;
68256;SDS011;55069;51.568;4.656;2022-11-23T14:47:44;7.10;;;1.40;;
68256;SDS011;55069;51.568;4.656;2022-11-23T14:50:28;5.47;;;1.55;;
68256;SDS011;55069;51.568;4.656;2022-11-23T14:52:54;8.60;;;1.93;;
68256;SDS011;55069;51.568;4.656;2022-11-23T14:55:23;6.30;;;1.67;;
68256;SDS011;55069;51.568;4.656;2022-11-23T14:58:03;6.75;;;1.77;;
68256;SDS011;55069;51.568;4.656;2022-11-23T15:00:40;9.07;;;1.55;;
68256;SDS011;55069;51.568;4.656;2022-11-23T15:03:13;8.63;;;1.98;;
68256;SDS011;55069;51.568;4.656;2022-11-23T15:05:42;7.23;;;1.63;;
68256;SDS011;55069;51.568;4.656;2022-11-23T15:13:42;4.85;;;1.70;;
68256;SDS011;55069;51.568;4.656;2022-11-23T15:16:11;4.93;;;1.65;;
68256;SDS011;55069;51.568;4.656;2022-11-23T15:18:38;9.20;;;2.10;;
68256;SDS011;55069;51.568;4.656;2022-11-23T15:23:45;3.07;;;1.67;;
68256;SDS011;55069;51.568;4.656;2022-11-23T15:26:17;6.05;;;1.70;;
68256;SDS011;55069;51.568;4.656;2022-11-23T15:28:48;7.90;;;1.85;;
68256;SDS011;55069;51.568;4.656;2022-11-23T15:31:18;5.40;;;2.10;;
68256;SDS011;55069;51.568;4.656;2022-11-23T15:33:52;5.05;;;1.63;;
68256;SDS011;55069;51.568;4.656;2022-11-23T15:36:24;4.40;;;2.03;;
68256;SDS011;55069;51.568;4.656;2022-11-23T15:38:52;4.68;;;1.95;;
68256;SDS011;55069;51.568;4.656;2022-11-23T15:41:20;7.18;;;2.17;;
68256;SDS011;55069;51.568;4.656;2022-11-23T15:43:50;4.75;;;2.00;;
68256;SDS011;55069;51.568;4.656;2022-11-23T15:46:26;7.32;;;2.28;;
68256;SDS011;55069;51.568;4.656;2022-11-23T15:48:57;7.03;;;2.60;;
68256;SDS011;55069;51.568;4.656;2022-11-23T15:53:50;5.18;;;2.70;;
68256;SDS011;55069;51.568;4.656;2022-11-23T15:59:00;5.55;;;2.72;;
68256;SDS011;55069;51.568;4.656;2022-11-23T16:01:28;7.15;;;2.42;;
68256;SDS011;55069;51.568;4.656;2022-11-23T16:03:57;9.48;;;2.35;;
68256;SDS011;55069;51.568;4.656;2022-11-23T16:09:30;7.33;;;3.07;;
68256;SDS011;55069;51.568;4.656;2022-11-23T16:11:57;8.30;;;2.67;;
68256;SDS011;55069;51.568;4.656;2022-11-23T16:14:26;7.38;;;2.90;;
68256;SDS011;55069;51.568;4.656;2022-11-23T16:17:02;5.15;;;2.85;;
68256;SDS011;55069;51.568;4.656;2022-11-23T16:19:31;4.43;;;2.70;;
68256;SDS011;55069;51.568;4.656;2022-11-23T16:22:01;8.98;;;3.80;;
68256;SDS011;55069;51.568;4.656;2022-11-23T16:24:31;7.13;;;3.42;;
68256;SDS011;55069;51.568;4.656;2022-11-23T16:26:58;4.27;;;3.07;;
68256;SDS011;55069;51.568;4.656;2022-11-23T16:29:25;6.40;;;3.40;;
68256;SDS011;55069;51.568;4.656;2022-11-23T16:31:58;10.98;;;3.92;;
68256;SDS011;55069;51.568;4.656;2022-11-23T16:34:25;8.73;;;3.22;;
68256;SDS011;55069;51.568;4.656;2022-11-23T16:36:52;9.88;;;3.95;;
68256;SDS011;55069;51.568;4.656;2022-11-23T16:39:20;8.80;;;3.87;;
68256;SDS011;55069;51.568;4.656;2022-11-23T16:41:52;6.45;;;3.42;;
68256;SDS011;55069;51.568;4.656;2022-11-23T16:44:17;7.93;;;3.30;;
68256;SDS011;55069;51.568;4.656;2022-11-23T16:46:43;9.50;;;4.00;;
68256;SDS011;55069;51.568;4.656;2022-11-23T16:49:15;9.88;;;4.55;;
68256;SDS011;55069;51.568;4.656;2022-11-23T16:51:42;11.55;;;5.30;;
68256;SDS011;55069;51.568;4.656;2022-11-23T16:54:08;9.18;;;3.50;;
68256;SDS011;55069;51.568;4.656;2022-11-23T16:56:34;5.13;;;3.20;;
68256;SDS011;55069;51.568;4.656;2022-11-23T16:59:00;6.57;;;3.50;;
68256;SDS011;55069;51.568;4.656;2022-11-23T17:01:26;7.67;;;2.80;;
68256;SDS011;55069;51.568;4.656;2022-11-23T17:03:54;8.57;;;3.60;;
68256;SDS011;55069;51.568;4.656;2022-11-23T17:06:20;8.68;;;3.60;;
68256;SDS011;55069;51.568;4.656;2022-11-23T17:08:49;7.97;;;3.47;;
68256;SDS011;55069;51.568;4.656;2022-11-23T17:11:16;6.53;;;3.13;;
68256;SDS011;55069;51.568;4.656;2022-11-23T17:13:45;7.78;;;3.10;;
68256;SDS011;55069;51.568;4.656;2022-11-23T17:16:14;12.40;;;4.55;;
68256;SDS011;55069;51.568;4.656;2022-11-23T17:18:42;12.70;;;4.85;;
68256;SDS011;55069;51.568;4.656;2022-11-23T17:21:08;7.72;;;4.05;;